Search for airport 
image banner adimage banner ad
image banner ad

WBKP - Pamol

Located in , Malaysia

ICAO - WBKP, IATA - PAY

Data provided by Airmate  

General information

Coordinates: N5°59'34" E117°23'47"
Elevation is 36 feet MSL.
 
Rated:
View ratings: [VIEW]


View others Airports in Sabah

Operational data

Open for public use
Current time UTC:
Current local time:
Weather at : WBKS - Sandakan ( 73 km )
METAR: WBKS 181100Z 07004KT 030V110 6000 FEW016 BKN280 29/27 Q1010
TAF: TAF WBKS 180500Z 1806/1906 33005KT 5000 HZ FEW016
View NOTAMs / SUP AIP / TFR affecting this airport [VIEW]
Communications frequencies: [VIEW]

Runways:

RWY identifierQFULength (ft)Width (ft)SurfaceLDA (ft)
1800
3600

Airport contact information

Address: Malaysia

Satellite view of WBKP